SASJ/JUJ METAR and TAF weather

Enter ICAO airport designator
Station Type Date Time Source
SASJ METAR 2021/10/20 05:00 UTC NOAA

SASJ 200500Z 33007KT CAVOK 16/07 Q1019


Station Type Date Time Source
SASJ Decoded METAR 2021/10/20 05:00 UTC NOAA

Jujuy Aerodrome, Argentina (SASJ) 24-23S 065-05W 905M
Oct 20, 2021 - 01:00 AM EDT / 2021.10.20 0500 UTC
Wind: from the NNW (330 degrees) at 8 MPH (7 KT):0
Visibility: greater than 7 mile(s):0
Temperature: 60 F (16 C)
Dew Point: 44 F (7 C)
Relative Humidity: 55%
Pressure (altimeter): 30.09 in. Hg (1019 hPa)
ob: SASJ 200500Z 33007KT CAVOK 16/07 Q1019
cycle: 5

Station Type Date Time Source
SASJ TAF 2021/10/20 06:09 UTC NOAA

TAF SASJ 200500Z 2006/2106 05005KT 9999 FEW040 SCT080 TX28/2018Z TN12/2010Z
BECMG 2013/2016 02015KT

Example: see airport list